Terminal Aerodrome Forecast
Issued by NWS Goodland, KS

Home | Current Version | Previous Version | Text Only | Print | Product List | Glossary On
Versions: 1 2 3 4 5 6 7 8 9 10 11 12 13 14 15 16
298
FTUS43 KGLD 100520
TAFGLD
TAF
KGLD 100520Z 1006/1106 28012KT P6SM SKC
     FM101000 30010KT P6SM SKC WS020/33050KT
     FM101700 33010G20KT P6SM SCT250
     FM110000 30010KT P6SM SKC=

USA.gov is the U.S. government's official web portal to all federal, state and local government web resources and services.